createdAt,value
2022-11-09T00:00:05.748Z,83.75
2022-11-09T00:02:52.472Z,83.87
2022-11-09T00:05:19.318Z,84.03
2022-11-09T00:07:46.175Z,84.14
2022-11-09T00:10:13.310Z,84.18
2022-11-09T00:12:40.195Z,84.30
2022-11-09T00:15:08.332Z,84.21
2022-11-09T00:17:35.275Z,84.41
2022-11-09T00:20:02.359Z,84.34
2022-11-09T00:22:29.195Z,84.51
2022-11-09T00:24:56.113Z,84.53
2022-11-09T00:27:22.970Z,84.76
2022-11-09T00:29:50.078Z,84.94
2022-11-09T00:32:18.461Z,84.90
2022-11-09T00:34:45.652Z,85.02
2022-11-09T00:37:12.525Z,84.98
2022-11-09T00:39:39.402Z,84.98
2022-11-09T00:42:07.443Z,85.33
2022-11-09T00:44:34.312Z,85.27
2022-11-09T00:47:01.198Z,85.26
2022-11-09T00:49:28.020Z,85.17
2022-11-09T00:51:55.074Z,85.21
2022-11-09T00:54:22.908Z,85.29
2022-11-09T00:56:49.733Z,85.52
2022-11-09T00:59:16.986Z,85.37
2022-11-09T01:01:43.867Z,85.48
2022-11-09T01:04:10.863Z,85.55
2022-11-09T01:06:37.976Z,85.55
2022-11-09T01:09:05.071Z,85.49
2022-11-09T01:11:31.885Z,85.61
2022-11-09T01:14:01.232Z,85.62
2022-11-09T01:16:29.046Z,85.54
2022-11-09T01:18:58.622Z,85.55
2022-11-09T01:21:26.380Z,85.62
2022-11-09T01:23:53.562Z,85.46
2022-11-09T01:26:20.511Z,85.36
2022-11-09T01:28:48.019Z,85.28
2022-11-09T01:31:17.889Z,85.33
2022-11-09T01:33:45.544Z,85.10
2022-11-09T01:36:14.517Z,85.14
2022-11-09T01:38:42.181Z,85.00
2022-11-09T01:41:12.586Z,85.01
2022-11-09T01:43:39.422Z,84.78
2022-11-09T01:46:16.310Z,84.94
2022-11-09T01:48:49.758Z,84.87
2022-11-09T01:51:25.627Z,84.87
2022-11-09T01:53:59.215Z,84.83
2022-11-09T01:56:27.460Z,84.87
2022-11-09T01:58:57.092Z,84.95
2022-11-09T02:01:24.899Z,85.02
2022-11-09T02:03:56.665Z,84.98
2022-11-09T02:06:26.861Z,84.83
2022-11-09T02:08:58.505Z,85.06
2022-11-09T02:11:29.339Z,85.29
2022-11-09T02:14:01.870Z,85.15
2022-11-09T02:16:30.076Z,85.32
2022-11-09T02:19:00.799Z,85.29
2022-11-09T02:21:29.873Z,85.66
2022-11-09T02:23:57.145Z,85.66
2022-11-09T02:26:29.979Z,85.68
2022-11-09T02:28:59.243Z,85.84
2022-11-09T02:31:32.284Z,85.73
2022-11-09T02:34:04.994Z,85.90
2022-11-09T02:36:32.233Z,85.96
2022-11-09T02:39:00.935Z,86.00
2022-11-09T02:41:29.829Z,86.14
2022-11-09T02:43:57.627Z,86.12
2022-11-09T02:46:31.901Z,86.40
2022-11-09T02:48:58.926Z,86.32
2022-11-09T02:51:25.801Z,86.36
2022-11-09T02:53:53.545Z,86.30
2022-11-09T02:56:21.681Z,86.30
2022-11-09T02:58:48.683Z,86.41
2022-11-09T03:01:16.947Z,86.29
2022-11-09T03:03:44.614Z,86.46
2022-11-09T03:06:12.815Z,86.22
2022-11-09T03:08:40.882Z,86.30
2022-11-09T03:11:08.110Z,86.25
2022-11-09T03:13:35.446Z,86.09
2022-11-09T03:16:07.103Z,86.14
2022-11-09T03:18:36.955Z,86.23
2022-11-09T03:21:08.041Z,86.26
2022-11-09T03:23:35.359Z,86.27
2022-11-09T03:26:02.883Z,86.24
2022-11-09T03:28:29.833Z,86.23
2022-11-09T03:30:57.119Z,86.30
2022-11-09T03:33:24.400Z,86.09
2022-11-09T03:35:51.461Z,85.99
2022-11-09T03:38:18.630Z,86.03
2022-11-09T03:40:46.088Z,86.10
2022-11-09T03:43:12.949Z,86.13
2022-11-09T03:45:40.671Z,85.97
2022-11-09T03:48:08.196Z,85.98
2022-11-09T03:50:40.284Z,85.91
2022-11-09T03:53:07.551Z,85.91
2022-11-09T03:55:34.572Z,85.98
2022-11-09T03:58:01.619Z,85.76
2022-11-09T04:00:28.564Z,85.71
2022-11-09T04:02:55.872Z,86.00
2022-11-09T04:05:22.826Z,86.08
2022-11-09T04:07:54.739Z,86.14
2022-11-09T04:10:22.834Z,86.09
2022-11-09T04:12:49.929Z,85.97
2022-11-09T04:15:17.545Z,86.14
2022-11-09T04:17:44.853Z,86.20
2022-11-09T04:20:14.023Z,85.89
2022-11-09T04:22:40.927Z,85.87
2022-11-09T04:25:09.067Z,86.01
2022-11-09T04:27:35.867Z,85.85
2022-11-09T04:30:02.740Z,85.96
2022-11-09T04:32:29.574Z,86.08
2022-11-09T04:34:56.400Z,86.15
2022-11-09T04:37:23.292Z,85.95
2022-11-09T04:39:50.124Z,86.06
2022-11-09T04:42:17.007Z,86.02
2022-11-09T04:44:44.016Z,86.16
2022-11-09T04:47:11.012Z,86.08
2022-11-09T04:49:37.899Z,86.13
2022-11-09T04:52:04.860Z,86.26
2022-11-09T04:54:31.849Z,86.40
2022-11-09T04:56:58.735Z,86.44
2022-11-09T04:59:25.645Z,86.46
2022-11-09T05:01:52.433Z,86.56
2022-11-09T05:04:19.419Z,86.55
2022-11-09T05:06:46.534Z,86.37
2022-11-09T05:09:13.552Z,86.47
2022-11-09T05:11:40.515Z,86.58
2022-11-09T05:14:07.386Z,86.68
2022-11-09T05:16:34.776Z,86.75
2022-11-09T05:19:01.669Z,86.77
2022-11-09T05:21:28.793Z,86.80
2022-11-09T05:24:03.020Z,86.79
2022-11-09T05:26:31.568Z,86.79
2022-11-09T05:28:59.177Z,86.93
2022-11-09T05:31:26.396Z,86.93
2022-11-09T05:33:54.300Z,86.80
2022-11-09T05:36:21.768Z,86.96
2022-11-09T05:38:48.848Z,86.88
2022-11-09T05:41:16.145Z,86.97
2022-11-09T05:43:44.681Z,86.85
2022-11-09T05:46:11.737Z,87.17
2022-11-09T05:48:38.686Z,87.13
2022-11-09T05:51:07.456Z,87.10
2022-11-09T05:53:34.976Z,87.01
2022-11-09T05:56:06.620Z,87.02
2022-11-09T05:58:36.556Z,87.16
2022-11-09T06:01:03.450Z,87.13
2022-11-09T06:03:30.328Z,87.13
2022-11-09T06:06:06.790Z,86.94
2022-11-09T06:08:35.614Z,86.99
2022-11-09T06:11:04.857Z,86.79
2022-11-09T06:13:32.340Z,86.78
2022-11-09T06:16:00.702Z,87.09
2022-11-09T06:18:29.188Z,86.82
2022-11-09T06:20:58.269Z,86.72
2022-11-09T06:23:25.864Z,86.49
2022-11-09T06:25:53.587Z,86.51
2022-11-09T06:28:20.649Z,86.43
2022-11-09T06:30:47.876Z,86.31
2022-11-09T06:33:14.804Z,86.33
2022-11-09T06:35:42.223Z,86.24
2022-11-09T06:38:19.277Z,86.07
2022-11-09T06:40:46.514Z,86.00
2022-11-09T06:43:13.416Z,85.83
2022-11-09T06:45:40.329Z,85.97
2022-11-09T06:48:07.769Z,85.73
2022-11-09T06:50:35.372Z,85.77
2022-11-09T06:53:04.698Z,85.83
2022-11-09T06:55:33.271Z,85.76
2022-11-09T06:58:00.688Z,85.66
2022-11-09T07:00:29.171Z,85.52
2022-11-09T07:02:56.254Z,85.16
2022-11-09T07:05:23.437Z,84.83
2022-11-09T07:07:50.722Z,84.54
2022-11-09T07:10:18.122Z,84.23
2022-11-09T07:12:45.017Z,84.26
2022-11-09T07:15:13.880Z,84.18
2022-11-09T07:17:41.375Z,84.03
2022-11-09T07:20:10.910Z,83.97
2022-11-09T07:22:40.358Z,83.84
2022-11-09T07:25:09.789Z,83.61
2022-11-09T07:27:37.206Z,83.59
2022-11-09T07:30:05.066Z,83.45
2022-11-09T07:33:07.407Z,83.46
2022-11-09T07:35:20.757Z,83.54
2022-11-09T07:37:47.916Z,83.68
2022-11-09T07:40:16.153Z,83.66
2022-11-09T07:42:43.057Z,83.49
2022-11-09T07:45:11.225Z,83.32
2022-11-09T07:47:38.061Z,83.26
2022-11-09T07:50:05.257Z,83.18
2022-11-09T07:52:32.268Z,82.94
2022-11-09T07:54:59.156Z,82.75
2022-11-09T07:57:26.123Z,82.60
2022-11-09T07:59:53.669Z,82.40
2022-11-09T08:02:23.661Z,82.54
2022-11-09T08:04:51.043Z,82.33
2022-11-09T08:07:17.922Z,82.02
2022-11-09T08:09:45.266Z,81.77
2022-11-09T08:12:12.366Z,81.47
2022-11-09T08:14:39.194Z,81.02
2022-11-09T08:17:06.185Z,80.86
2022-11-09T08:19:33.166Z,80.63
2022-11-09T08:22:00.756Z,80.79
2022-11-09T08:24:27.734Z,80.45
2022-11-09T08:26:55.974Z,80.13
2022-11-09T08:29:23.106Z,79.44
2022-11-09T08:31:52.066Z,79.33
2022-11-09T08:34:19.572Z,79.13
2022-11-09T08:36:46.452Z,79.05
2022-11-09T08:39:15.778Z,78.61
2022-11-09T08:41:44.948Z,77.85
2022-11-09T08:44:11.825Z,77.68
2022-11-09T08:46:41.396Z,77.24
2022-11-09T08:49:08.664Z,76.60
2022-11-09T08:51:35.975Z,76.04
2022-11-09T08:54:02.872Z,75.36
2022-11-09T08:56:30.058Z,74.63
2022-11-09T08:58:57.006Z,74.24
2022-11-09T09:01:25.461Z,74.03
2022-11-09T09:03:52.905Z,73.90
2022-11-09T09:06:20.132Z,74.85
2022-11-09T09:08:47.146Z,74.98
2022-11-09T09:11:14.189Z,74.93
2022-11-09T09:13:43.519Z,74.54
2022-11-09T09:16:16.286Z,73.78
2022-11-09T09:18:43.458Z,73.27
2022-11-09T09:21:13.474Z,73.28
2022-11-09T09:23:40.688Z,72.74
2022-11-09T09:26:07.998Z,71.99
2022-11-09T09:28:34.993Z,71.62
2022-11-09T09:31:02.810Z,72.15
2022-11-09T09:33:30.120Z,72.11
2022-11-09T09:35:59.740Z,71.13
2022-11-09T09:38:27.219Z,70.99
2022-11-09T09:40:59.497Z,70.36
2022-11-09T09:43:32.184Z,70.59
2022-11-09T09:46:01.934Z,70.01
2022-11-09T09:48:36.829Z,69.49
2022-11-09T09:51:10.250Z,69.43
2022-11-09T09:53:44.473Z,69.01
2022-11-09T09:56:18.130Z,69.43
2022-11-09T09:58:50.584Z,70.07
2022-11-09T10:01:20.208Z,70.25
2022-11-09T10:03:47.221Z,70.41
2022-11-09T10:06:31.819Z,70.09
2022-11-09T10:09:07.444Z,70.37
2022-11-09T10:11:44.615Z,70.54
2022-11-09T10:14:31.735Z,70.78
2022-11-09T10:17:08.766Z,70.85
2022-11-09T10:19:49.480Z,70.85
2022-11-09T10:22:23.578Z,70.99
2022-11-09T10:25:20.725Z,71.12
2022-11-09T10:27:52.952Z,71.14
2022-11-09T10:30:22.562Z,71.49
2022-11-09T10:32:52.592Z,71.63
2022-11-09T10:35:22.857Z,71.58
2022-11-09T10:37:52.376Z,71.90
2022-11-09T10:40:25.214Z,72.06
2022-11-09T10:43:14.019Z,71.98
2022-11-09T10:46:05.950Z,71.74
2022-11-09T10:48:52.136Z,71.68
2022-11-09T10:51:46.496Z,71.47
2022-11-09T10:54:35.201Z,71.51
2022-11-09T10:57:22.509Z,71.51
2022-11-09T11:00:14.852Z,71.42
2022-11-09T11:03:10.467Z,71.45
2022-11-09T11:06:01.417Z,71.58
2022-11-09T11:08:48.849Z,71.24
2022-11-09T11:11:36.951Z,71.37
2022-11-09T11:14:30.308Z,71.49
2022-11-09T11:17:26.025Z,70.80
2022-11-09T11:20:38.683Z,70.71
2022-11-09T11:23:26.320Z,71.05
2022-11-09T11:26:35.659Z,70.91
2022-11-09T11:29:33.857Z,71.01
2022-11-09T11:32:21.866Z,70.01
2022-11-09T11:35:14.023Z,70.31
2022-11-09T11:38:12.965Z,70.33
2022-11-09T11:41:11.481Z,70.36
2022-11-09T11:44:04.418Z,69.86
2022-11-09T11:47:10.008Z,70.01
2022-11-09T11:50:22.490Z,69.88
2022-11-09T11:53:18.985Z,69.98
2022-11-09T11:56:27.647Z,70.10
2022-11-09T11:59:38.892Z,70.29
2022-11-09T12:03:04.579Z,70.40
2022-11-09T12:06:12.672Z,69.81
2022-11-09T12:09:15.480Z,69.52
2022-11-09T12:12:14.328Z,69.25
2022-11-09T12:15:28.490Z,69.24
2022-11-09T12:18:31.217Z,68.77
2022-11-09T12:21:20.469Z,68.75
2022-11-09T12:24:16.909Z,68.66
2022-11-09T12:27:36.581Z,68.05
2022-11-09T12:30:25.081Z,67.90
2022-11-09T12:33:15.925Z,68.17
2022-11-09T12:36:08.413Z,68.27
2022-11-09T12:39:03.599Z,67.92
2022-11-09T12:41:51.023Z,67.70
2022-11-09T12:44:40.013Z,67.89
2022-11-09T12:47:31.607Z,67.65
2022-11-09T12:50:20.862Z,67.76
2022-11-09T12:53:09.191Z,67.71
2022-11-09T12:55:59.453Z,67.76
2022-11-09T12:58:45.291Z,68.23
2022-11-09T13:01:53.219Z,68.05
2022-11-09T13:04:38.960Z,67.91
2022-11-09T13:07:43.620Z,67.97
2022-11-09T13:10:35.450Z,67.93
2022-11-09T13:13:26.498Z,68.16
2022-11-09T13:16:34.866Z,68.35
2022-11-09T13:19:54.384Z,68.25
2022-11-09T13:23:01.768Z,68.48
2022-11-09T13:25:54.740Z,68.44
2022-11-09T13:29:08.148Z,68.48
2022-11-09T13:32:28.702Z,68.68
2022-11-09T13:35:44.876Z,68.89
2022-11-09T13:38:33.303Z,69.21
2022-11-09T13:41:44.861Z,69.22
2022-11-09T13:44:34.465Z,69.47
2022-11-09T13:47:35.236Z,69.65
2022-11-09T13:50:24.192Z,69.84
2022-11-09T13:53:31.512Z,69.97
2022-11-09T13:56:27.055Z,70.10
2022-11-09T13:59:18.351Z,70.03
2022-11-09T14:02:04.907Z,70.10
2022-11-09T14:04:50.832Z,70.11
2022-11-09T14:07:36.941Z,70.11
2022-11-09T14:10:30.848Z,70.46
2022-11-09T14:13:32.166Z,70.45
2022-11-09T14:16:27.625Z,70.50
2022-11-09T14:19:27.771Z,70.60
2022-11-09T14:22:19.757Z,70.76
2022-11-09T14:25:14.732Z,70.82
2022-11-09T14:28:00.476Z,70.91
2022-11-09T14:30:47.873Z,71.03
2022-11-09T14:33:34.858Z,71.21
2022-11-09T14:36:20.707Z,71.15
2022-11-09T14:39:18.539Z,71.22
2022-11-09T14:42:06.642Z,71.26
2022-11-09T14:44:58.414Z,71.22
2022-11-09T14:47:49.213Z,71.24
2022-11-09T14:50:38.075Z,71.30
2022-11-09T14:53:27.451Z,71.43
2022-11-09T14:56:16.301Z,71.53
2022-11-09T14:59:02.852Z,71.82
2022-11-09T15:02:02.257Z,71.75
2022-11-09T15:05:03.214Z,71.91
2022-11-09T15:07:49.462Z,72.01
2022-11-09T15:10:35.319Z,72.09
2022-11-09T15:13:29.211Z,72.09
2022-11-09T15:16:25.138Z,72.33
2022-11-09T15:19:23.534Z,72.33
2022-11-09T15:22:48.378Z,72.43
2022-11-09T15:25:37.433Z,72.55
2022-11-09T15:28:26.122Z,72.69
2022-11-09T15:31:16.735Z,72.78
2022-11-09T15:34:02.333Z,72.85
2022-11-09T15:36:56.188Z,72.92
2022-11-09T15:39:41.755Z,72.98
2022-11-09T15:42:27.958Z,73.05
2022-11-09T15:45:17.299Z,73.20
2022-11-09T15:48:04.161Z,73.39
2022-11-09T15:50:49.639Z,73.39
2022-11-09T15:53:35.519Z,73.54
2022-11-09T15:56:23.535Z,73.71
2022-11-09T15:59:14.145Z,73.86
2022-11-09T16:01:59.540Z,73.93
2022-11-09T16:04:45.757Z,74.03
2022-11-09T16:07:31.342Z,74.22
2022-11-09T16:10:17.889Z,74.30
2022-11-09T16:13:03.721Z,74.41
2022-11-09T16:15:49.380Z,74.49
2022-11-09T16:18:37.801Z,74.65
2022-11-09T16:21:23.904Z,74.71
2022-11-09T16:24:13.741Z,74.77
2022-11-09T16:26:59.970Z,74.95
2022-11-09T16:29:45.913Z,74.98
2022-11-09T16:32:31.879Z,75.16
2022-11-09T16:35:27.233Z,75.30
2022-11-09T16:38:13.260Z,75.42
2022-11-09T16:41:00.825Z,75.61
2022-11-09T16:43:48.587Z,75.76
2022-11-09T16:46:34.894Z,75.81
2022-11-09T16:49:20.490Z,76.14
2022-11-09T16:52:07.143Z,76.21
2022-11-09T16:54:53.255Z,76.35
2022-11-09T16:57:39.690Z,76.46
2022-11-09T17:00:33.743Z,76.69
2022-11-09T17:03:31.937Z,76.74
2022-11-09T17:06:17.549Z,76.88
2022-11-09T17:09:03.305Z,77.15
2022-11-09T17:11:48.850Z,77.21
2022-11-09T17:14:34.123Z,77.27
2022-11-09T17:17:22.618Z,77.37
2022-11-09T17:20:11.136Z,77.39
2022-11-09T17:23:03.466Z,77.46
2022-11-09T17:26:04.205Z,77.64
2022-11-09T17:29:00.037Z,77.64
2022-11-09T17:31:49.877Z,77.72
2022-11-09T17:34:40.408Z,78.06
2022-11-09T17:37:26.383Z,78.17
2022-11-09T17:40:22.208Z,78.01
2022-11-09T17:43:09.882Z,77.86
2022-11-09T17:45:56.928Z,77.87
2022-11-09T17:48:44.887Z,77.90
2022-11-09T17:51:31.393Z,77.94
2022-11-09T17:54:17.183Z,77.93
2022-11-09T17:57:02.980Z,78.05
2022-11-09T17:59:48.959Z,78.29
2022-11-09T18:02:35.244Z,78.32
2022-11-09T18:05:20.985Z,78.29
2022-11-09T18:08:17.270Z,78.31
2022-11-09T18:11:02.912Z,78.42
2022-11-09T18:13:49.079Z,78.41
2022-11-09T18:16:34.626Z,78.45
2022-11-09T18:19:23.227Z,78.52
2022-11-09T18:22:12.850Z,78.55
2022-11-09T18:25:01.941Z,78.49
2022-11-09T18:27:49.246Z,78.63
2022-11-09T18:30:55.230Z,78.64
2022-11-09T18:33:41.161Z,78.83
2022-11-09T18:36:28.025Z,78.92
2022-11-09T18:39:13.893Z,78.84
2022-11-09T18:42:01.968Z,79.22
2022-11-09T18:44:47.788Z,79.35
2022-11-09T18:47:33.736Z,79.22
2022-11-09T18:50:21.908Z,78.92
2022-11-09T18:53:07.557Z,78.79
2022-11-09T18:55:53.457Z,78.90
2022-11-09T18:58:39.533Z,78.72
2022-11-09T19:01:27.280Z,78.79
2022-11-09T19:04:16.786Z,78.73
2022-11-09T19:07:00.845Z,78.73
2022-11-09T19:09:46.960Z,78.85
2022-11-09T19:12:32.641Z,78.86
2022-11-09T19:15:20.461Z,78.91
2022-11-09T19:18:04.494Z,79.03
2022-11-09T19:20:50.529Z,79.04
2022-11-09T19:23:36.182Z,79.05
2022-11-09T19:26:22.341Z,79.09
2022-11-09T19:29:08.923Z,79.01
2022-11-09T19:31:55.069Z,79.02
2022-11-09T19:34:42.813Z,79.05
2022-11-09T19:37:29.001Z,79.06
2022-11-09T19:40:15.695Z,79.04
2022-11-09T19:43:01.334Z,79.06
2022-11-09T19:45:46.835Z,79.09
2022-11-09T19:48:34.853Z,79.18
2022-11-09T19:51:20.901Z,79.25
2022-11-09T19:54:07.528Z,79.13
2022-11-09T19:56:52.915Z,79.12
2022-11-09T19:59:38.268Z,79.22
2022-11-09T20:02:26.557Z,79.18
2022-11-09T20:05:12.468Z,79.30
2022-11-09T20:07:58.170Z,79.35
2022-11-09T20:10:43.472Z,79.36
2022-11-09T20:13:29.154Z,79.57
2022-11-09T20:16:15.167Z,79.62
2022-11-09T20:19:01.251Z,79.67
2022-11-09T20:21:47.116Z,79.82
2022-11-09T20:24:32.537Z,79.94
2022-11-09T20:27:18.129Z,79.98
2022-11-09T20:30:04.273Z,79.96
2022-11-09T20:32:52.873Z,79.92
2022-11-09T20:35:41.812Z,80.06
2022-11-09T20:38:32.524Z,80.11
2022-11-09T20:41:22.909Z,80.17
2022-11-09T20:44:11.171Z,80.30
2022-11-09T20:46:56.797Z,80.40
2022-11-09T20:49:42.369Z,80.67
2022-11-09T20:52:27.893Z,80.77
2022-11-09T20:55:15.059Z,80.97
2022-11-09T20:57:59.157Z,80.99
2022-11-09T21:00:45.039Z,81.14
2022-11-09T21:03:30.996Z,81.30
2022-11-09T21:06:17.392Z,81.24
2022-11-09T21:09:05.559Z,81.37
2022-11-09T21:12:08.874Z,81.47
2022-11-09T21:14:55.087Z,81.59
2022-11-09T21:17:40.895Z,81.81
2022-11-09T21:20:26.295Z,81.98
2022-11-09T21:23:30.852Z,82.16
2022-11-09T21:26:34.189Z,82.41
2022-11-09T21:29:38.499Z,82.51
2022-11-09T21:32:25.115Z,82.65
2022-11-09T21:35:11.543Z,82.84
2022-11-09T21:37:58.934Z,82.99
2022-11-09T21:40:44.411Z,83.06
2022-11-09T21:43:30.187Z,83.22
2022-11-09T21:46:16.256Z,83.33
2022-11-09T21:49:01.821Z,83.35
2022-11-09T21:51:49.376Z,83.57
2022-11-09T21:54:35.526Z,83.52
2022-11-09T21:57:21.340Z,83.84
2022-11-09T22:00:09.395Z,83.80
2022-11-09T22:02:54.976Z,83.80
2022-11-09T22:05:41.811Z,83.93
2022-11-09T22:08:27.313Z,83.96
2022-11-09T22:11:14.889Z,83.82
2022-11-09T22:14:29.881Z,84.07
2022-11-09T22:17:15.922Z,83.99
2022-11-09T22:20:19.358Z,83.99
2022-11-09T22:23:09.083Z,83.96
2022-11-09T22:25:55.103Z,83.94
2022-11-09T22:28:40.909Z,83.86
2022-11-09T22:31:27.205Z,84.06
2022-11-09T22:34:12.672Z,84.20
2022-11-09T22:36:58.475Z,84.39
2022-11-09T22:39:47.281Z,84.45
2022-11-09T22:42:34.306Z,84.67
2022-11-09T22:45:19.670Z,84.73
2022-11-09T22:48:05.170Z,85.00
2022-11-09T22:50:50.765Z,84.96
2022-11-09T22:53:36.829Z,85.11
2022-11-09T22:56:22.774Z,85.07
2022-11-09T22:59:09.020Z,85.26
2022-11-09T23:01:54.797Z,85.30
2022-11-09T23:04:40.766Z,85.37
2022-11-09T23:07:26.471Z,85.44
2022-11-09T23:10:12.843Z,85.44
2022-11-09T23:12:59.167Z,85.53
2022-11-09T23:15:44.717Z,85.55
2022-11-09T23:18:48.960Z,85.70
2022-11-09T23:21:36.346Z,85.69
2022-11-09T23:24:35.905Z,85.93
2022-11-09T23:27:21.251Z,85.68
2022-11-09T23:30:07.559Z,85.65
2022-11-09T23:32:53.272Z,85.55
2022-11-09T23:35:38.889Z,85.74
2022-11-09T23:38:25.219Z,85.76
2022-11-09T23:41:13.297Z,85.74
2022-11-09T23:43:59.258Z,85.72
2022-11-09T23:46:44.861Z,85.84
2022-11-09T23:49:30.446Z,85.81
2022-11-09T23:52:16.039Z,85.88
2022-11-09T23:55:01.459Z,85.90
2022-11-09T23:57:47.004Z,85.82
